Time;durP1;ratioP1;P1;durP2;ratioP2;P2;SDS_P1;SDS_P2;PMS_P1;PMS_P2;Temp;Humidity;BMP_temperature;BMP_pressure;BME280_temperature;BME280_humidity;BME280_pressure;Samples;Min_cycle;Max_cycle;Signal;HPM_P1;HPM_P2
2022/03/08 00:02:07;;;;;;;13.00;4.75;;;2.10;99.90;;;;;;5038506;28;20270;-72
2022/03/08 00:04:33;;;;;;;13.07;5.03;;;2.10;99.90;;;;;;5056850;28;20037;-71
2022/03/08 00:07:00;;;;;;;14.07;5.88;;;2.10;99.90;;;;;;5056771;28;20032;-71
2022/03/08 00:09:26;;;;;;;15.15;6.32;;;2.00;99.90;;;;;;5056069;28;20442;-71
2022/03/08 00:11:52;;;;;;;11.05;5.82;;;2.00;99.90;;;;;;5056186;28;20029;-70
2022/03/08 00:14:18;;;;;;;14.80;6.23;;;2.00;99.90;;;;;;5037544;28;20123;-70
2022/03/08 00:16:45;;;;;;;10.83;5.47;;;2.00;99.90;;;;;;5053347;28;20370;-71
2022/03/08 00:19:11;;;;;;;11.93;5.40;;;2.00;99.90;;;;;;5052760;28;20013;-71
2022/03/08 00:21:37;;;;;;;13.85;5.80;;;1.90;99.90;;;;;;5047137;28;20040;-79
2022/03/08 00:24:04;;;;;;;12.17;6.30;;;1.90;99.90;;;;;;5050358;28;20022;-70
2022/03/08 00:26:30;;;;;;;11.95;6.03;;;1.90;99.90;;;;;;5015984;28;20028;-71
2022/03/08 00:28:56;;;;;;;15.73;6.77;;;1.90;99.90;;;;;;5037822;28;20025;-71
2022/03/08 00:31:21;;;;;;;15.23;4.53;;;1.80;99.90;;;;;;5056037;28;20056;-71
2022/03/08 00:33:47;;;;;;;16.57;6.83;;;1.80;99.90;;;;;;5056145;28;20029;-71
2022/03/08 00:36:13;;;;;;;16.67;7.03;;;1.70;99.90;;;;;;5055435;28;20378;-70
2022/03/08 00:38:39;;;;;;;12.10;6.50;;;1.70;99.90;;;;;;5055400;28;20044;-70
2022/03/08 00:41:04;;;;;;;15.20;6.40;;;1.70;99.90;;;;;;5055403;28;20017;-70
2022/03/08 00:43:30;;;;;;;17.43;6.10;;;1.70;99.90;;;;;;5037252;28;20327;-71
2022/03/08 00:45:56;;;;;;;13.53;5.67;;;1.70;99.90;;;;;;5036276;28;20029;-71
2022/03/08 00:48:22;;;;;;;10.13;4.57;;;1.60;99.90;;;;;;5037216;28;20043;-71
2022/03/08 00:50:48;;;;;;;12.83;6.00;;;1.60;99.90;;;;;;5055699;28;20044;-71
2022/03/08 00:53:14;;;;;;;11.90;6.03;;;1.60;99.90;;;;;;5055268;28;20062;-71
2022/03/08 00:55:39;;;;;;;16.87;6.57;;;1.50;99.90;;;;;;5055338;28;20028;-71
2022/03/08 00:58:07;;;;;;;12.70;5.87;;;1.50;99.90;;;;;;5038138;28;20028;-71
2022/03/08 01:00:36;;;;;;;14.05;6.43;;;1.50;99.90;;;;;;5056537;28;20029;-71
2022/03/08 01:03:02;;;;;;;14.40;4.53;;;1.50;99.90;;;;;;5062812;28;20029;-72
2022/03/08 01:05:28;;;;;;;12.67;6.17;;;1.40;99.90;;;;;;5055141;28;20032;-71
2022/03/08 01:07:55;;;;;;;14.63;6.10;;;1.40;99.90;;;;;;5021282;28;20033;-71
2022/03/08 01:10:22;;;;;;;13.77;6.63;;;1.30;99.90;;;;;;5054570;28;20037;-71
2022/03/08 01:12:49;;;;;;;12.95;6.10;;;1.30;99.90;;;;;;5020257;28;20048;-71
2022/03/08 01:15:16;;;;;;;15.05;6.97;;;1.30;99.90;;;;;;5036501;28;20309;-71
2022/03/08 01:17:42;;;;;;;21.35;7.15;;;1.30;99.90;;;;;;5053977;28;20423;-71
2022/03/08 01:20:09;;;;;;;15.50;6.57;;;1.20;99.90;;;;;;5055252;28;20021;-71
2022/03/08 01:22:35;;;;;;;13.95;6.97;;;1.20;99.90;;;;;;5037451;28;20033;-71
2022/03/08 01:25:01;;;;;;;13.77;6.93;;;1.20;99.90;;;;;;5044555;28;20016;-71
2022/03/08 01:27:26;;;;;;;18.93;7.03;;;1.20;99.90;;;;;;5052946;28;20025;-71
2022/03/08 01:29:52;;;;;;;14.03;5.93;;;1.20;99.90;;;;;;5054518;28;20442;-71
2022/03/08 01:32:18;;;;;;;17.60;6.17;;;1.10;99.90;;;;;;5055006;28;20033;-71
2022/03/08 01:34:44;;;;;;;15.40;6.80;;;1.10;99.90;;;;;;5054725;28;20399;-70
2022/03/08 01:37:11;;;;;;;13.70;6.70;;;1.10;99.90;;;;;;5054914;28;20278;-71
2022/03/08 01:39:37;;;;;;;;;;;1.10;99.90;;;;;;5037586;28;20055;-71
2022/03/08 01:42:11;;;;;;;11.82;5.30;;;1.00;99.90;;;;;;5052337;28;19995;-78
2022/03/08 01:44:43;;;;;;;12.73;5.38;;;1.00;99.90;;;;;;5049339;28;20036;-70
2022/03/08 01:47:16;;;;;;;12.95;6.40;;;1.00;99.90;;;;;;5050937;28;20070;-71
2022/03/08 01:49:43;;;;;;;11.15;5.78;;;0.90;99.90;;;;;;5054082;28;20327;-71
2022/03/08 01:52:09;;;;;;;14.70;5.88;;;0.90;99.90;;;;;;5053256;28;20044;-71
2022/03/08 01:54:36;;;;;;;16.73;5.75;;;0.90;99.90;;;;;;5055222;28;20408;-71
2022/03/08 01:57:02;;;;;;;9.80;5.32;;;0.90;99.90;;;;;;5054528;28;20059;-71
2022/03/08 01:59:28;;;;;;;15.88;6.22;;;0.80;99.90;;;;;;5054547;28;20042;-71
2022/03/08 02:01:54;;;;;;;12.07;6.77;;;0.80;99.90;;;;;;5055118;28;20324;-71
2022/03/08 02:04:20;;;;;;;11.60;4.63;;;0.80;99.90;;;;;;5036334;28;20432;-71
2022/03/08 02:06:46;;;;;;;13.73;6.30;;;0.80;99.90;;;;;;5061607;28;20028;-71
2022/03/08 02:09:12;;;;;;;13.55;5.05;;;0.80;99.90;;;;;;5054147;28;20024;-71
2022/03/08 02:11:39;;;;;;;14.85;7.05;;;0.80;99.90;;;;;;5053671;28;20029;-71
2022/03/08 02:14:05;;;;;;;21.73;8.23;;;0.80;99.90;;;;;;5054414;28;20420;-71
2022/03/08 02:16:31;;;;;;;14.60;5.67;;;0.70;99.90;;;;;;5054995;28;20036;-71
2022/03/08 02:18:57;;;;;;;10.75;4.78;;;0.70;99.90;;;;;;5046801;28;20036;-71
2022/03/08 02:21:23;;;;;;;16.63;6.93;;;0.70;99.90;;;;;;5056629;28;20324;-70
2022/03/08 02:23:48;;;;;;;14.50;6.10;;;0.60;99.90;;;;;;5058915;28;20120;-73
2022/03/08 02:26:14;;;;;;;15.87;7.37;;;0.60;99.90;;;;;;5058293;28;20035;-70
2022/03/08 02:28:41;;;;;;;9.97;4.67;;;0.60;99.90;;;;;;5058506;28;20095;-70
2022/03/08 02:31:07;;;;;;;16.45;7.38;;;0.60;99.90;;;;;;5058176;28;20048;-70
2022/03/08 02:33:33;;;;;;;10.20;4.93;;;0.60;99.90;;;;;;5050902;28;20041;-72
2022/03/08 02:35:59;;;;;;;11.85;5.10;;;0.50;99.90;;;;;;5058134;28;20442;-71
2022/03/08 02:38:25;;;;;;;13.87;6.80;;;0.50;99.90;;;;;;5058295;28;20041;-71
2022/03/08 02:40:50;;;;;;;11.90;4.43;;;0.40;99.90;;;;;;5057729;28;20040;-79
2022/03/08 02:43:18;;;;;;;8.50;4.13;;;0.40;99.90;;;;;;5057908;28;20040;-70
2022/03/08 02:45:43;;;;;;;17.45;7.53;;;0.30;99.90;;;;;;5057815;28;20419;-70
2022/03/08 02:48:10;;;;;;;13.73;6.53;;;0.20;99.90;;;;;;5039857;28;20036;-70
2022/03/08 02:50:36;;;;;;;12.82;6.30;;;0.20;99.90;;;;;;5039649;28;20082;-71
2022/03/08 02:53:03;;;;;;;17.48;6.95;;;0.10;99.90;;;;;;5039771;28;20032;-71
2022/03/08 02:55:30;;;;;;;;;;;0.10;99.90;;;;;;5056149;28;20044;-70
2022/03/08 02:57:56;;;;;;;11.95;6.28;;;0.10;99.90;;;;;;5056742;28;19912;-79
2022/03/08 03:00:24;;;;;;;15.82;7.53;;;0.10;99.90;;;;;;5047971;28;20040;-72
2022/03/08 03:02:50;;;;;;;15.63;6.38;;;0.10;99.90;;;;;;5049145;28;20486;-70
2022/03/08 03:05:15;;;;;;;9.70;5.85;;;0.10;99.90;;;;;;5040108;28;20025;-70
2022/03/08 03:07:42;;;;;;;16.70;7.17;;;0.00;99.90;;;;;;5058095;28;20037;-70
2022/03/08 03:10:12;;;;;;;11.48;5.80;;;0.10;99.90;;;;;;5057371;28;20112;-71
2022/03/08 03:12:38;;;;;;;11.20;6.20;;;0.10;99.90;;;;;;5057429;28;20036;-70
2022/03/08 03:15:06;;;;;;;13.43;6.97;;;0.10;99.90;;;;;;5057831;28;20029;-71
2022/03/08 03:17:32;;;;;;;14.07;6.10;;;0.10;99.90;;;;;;5039954;28;20520;-71
2022/03/08 03:19:58;;;;;;;17.83;6.80;;;0.10;99.90;;;;;;5039577;28;20032;-70
2022/03/08 03:22:23;;;;;;;12.87;6.53;;;0.00;99.90;;;;;;5057753;28;20403;-70
2022/03/08 03:24:49;;;;;;;10.10;5.27;;;0.10;99.90;;;;;;5056943;28;20036;-71
2022/03/08 03:27:15;;;;;;;12.50;6.00;;;0.00;99.90;;;;;;5056180;28;20069;-70
2022/03/08 03:29:40;;;;;;;17.87;7.63;;;0.10;99.90;;;;;;5065859;28;20079;-70
2022/03/08 03:32:06;;;;;;;11.40;6.37;;;0.10;99.90;;;;;;5027555;28;20041;-70
2022/03/08 03:34:32;;;;;;;11.13;5.28;;;0.00;99.90;;;;;;5056783;28;20091;-71
2022/03/08 03:36:58;;;;;;;17.27;7.37;;;0.00;99.90;;;;;;5039667;28;20429;-71
2022/03/08 03:39:23;;;;;;;11.67;6.13;;;0.00;99.90;;;;;;5056670;28;20048;-71
2022/03/08 03:41:49;;;;;;;12.20;6.43;;;-0.10;99.90;;;;;;5057278;28;20101;-70
2022/03/08 03:44:15;;;;;;;9.97;4.43;;;-0.20;99.90;;;;;;5056220;28;20104;-71
2022/03/08 03:46:40;;;;;;;9.30;4.50;;;-0.20;99.90;;;;;;5056777;28;20032;-71
2022/03/08 03:49:06;;;;;;;17.20;5.97;;;-0.10;99.90;;;;;;5056855;28;20506;-71
2022/03/08 03:51:32;;;;;;;13.63;6.53;;;-0.20;99.90;;;;;;5055972;28;20036;-71
2022/03/08 03:53:57;;;;;;;14.30;5.53;;;-0.10;99.90;;;;;;5055498;28;20260;-70
2022/03/08 03:56:23;;;;;;;10.37;6.07;;;-0.10;99.90;;;;;;5056227;28;20043;-70
2022/03/08 03:58:49;;;;;;;11.57;5.50;;;-0.20;99.90;;;;;;5056524;28;20439;-71
2022/03/08 04:01:15;;;;;;;14.17;5.77;;;-0.20;99.90;;;;;;5048633;28;20368;-71
2022/03/08 04:03:41;;;;;;;15.67;6.40;;;-0.10;99.90;;;;;;5057187;28;20270;-70
2022/03/08 04:06:07;;;;;;;13.77;6.57;;;-0.10;99.90;;;;;;5055837;28;20024;-70
2022/03/08 04:08:33;;;;;;;10.70;4.50;;;-0.20;99.90;;;;;;5056013;28;20411;-71
2022/03/08 04:11:00;;;;;;;8.75;4.35;;;-0.20;99.90;;;;;;5053719;28;20052;-71
2022/03/08 04:13:25;;;;;;;9.07;4.45;;;-0.10;99.90;;;;;;5056702;28;20056;-71
2022/03/08 04:15:52;;;;;;;14.37;5.13;;;-0.10;99.90;;;;;;5057114;28;20072;-78
2022/03/08 04:18:18;;;;;;;9.68;5.70;;;-0.10;99.90;;;;;;5047057;28;20037;-71
2022/03/08 04:20:44;;;;;;;8.07;3.92;;;-0.10;99.90;;;;;;5056691;28;20029;-71
2022/03/08 04:23:10;;;;;;;13.57;5.67;;;-0.10;99.90;;;;;;5056584;28;20029;-70
2022/03/08 04:25:35;;;;;;;16.37;6.33;;;-0.20;99.90;;;;;;5056101;28;20323;-71
2022/03/08 04:28:02;;;;;;;8.57;4.30;;;-0.20;99.90;;;;;;5038236;28;20507;-71
2022/03/08 04:30:28;;;;;;;;;;;-0.20;99.90;;;;;;5056079;28;20028;-71
2022/03/08 04:32:54;;;;;;;12.57;5.70;;;-0.20;99.90;;;;;;5037446;28;20828;-71
2022/03/08 04:35:20;;;;;;;10.65;4.30;;;-0.10;99.90;;;;;;5046663;28;20026;-70
2022/03/08 04:37:46;;;;;;;7.15;3.92;;;-0.10;99.90;;;;;;5051571;28;20060;-78
2022/03/08 04:40:12;;;;;;;11.20;6.27;;;-0.10;99.90;;;;;;5051816;28;20428;-70
2022/03/08 04:42:39;;;;;;;9.55;5.85;;;0.00;99.90;;;;;;5051602;28;20029;-77
2022/03/08 04:45:07;;;;;;;13.05;6.07;;;-0.10;99.90;;;;;;5055989;28;20033;-70
2022/03/08 04:47:35;;;;;;;11.82;5.57;;;-0.10;99.90;;;;;;5055773;28;20032;-70
2022/03/08 04:50:03;;;;;;;10.82;5.97;;;-0.10;99.90;;;;;;5054963;28;20032;-71
2022/03/08 04:52:28;;;;;;;12.40;4.72;;;-0.10;99.90;;;;;;5055732;28;20033;-71
2022/03/08 04:54:54;;;;;;;8.37;4.97;;;-0.10;99.90;;;;;;5052783;28;20447;-71
2022/03/08 04:57:20;;;;;;;12.10;6.03;;;-0.10;99.90;;;;;;5055341;28;20297;-70
2022/03/08 04:59:45;;;;;;;21.63;8.37;;;-0.20;99.90;;;;;;5055801;28;20024;-71
2022/03/08 05:02:11;;;;;;;7.37;3.83;;;-0.20;99.90;;;;;;5055187;28;20021;-71
2022/03/08 05:04:37;;;;;;;9.33;3.37;;;-0.10;99.90;;;;;;5054991;28;20115;-70
2022/03/08 05:07:02;;;;;;;8.87;4.73;;;-0.10;99.90;;;;;;5037106;28;20021;-79
2022/03/08 05:09:28;;;;;;;11.33;4.97;;;-0.10;99.90;;;;;;5038099;28;20078;-70
2022/03/08 05:11:54;;;;;;;14.63;5.03;;;-0.10;99.90;;;;;;5055191;28;20025;-70
2022/03/08 05:14:19;;;;;;;8.73;4.47;;;-0.10;99.90;;;;;;5055422;28;20020;-70
2022/03/08 05:16:45;;;;;;;10.67;5.33;;;-0.10;99.90;;;;;;5055466;28;20116;-70
2022/03/08 05:19:11;;;;;;;7.90;4.30;;;-0.10;99.90;;;;;;5036966;28;20032;-70
2022/03/08 05:21:36;;;;;;;11.70;4.93;;;-0.10;99.90;;;;;;5055241;28;20029;-70
2022/03/08 05:24:02;;;;;;;13.33;5.87;;;-0.10;99.90;;;;;;5055281;28;20024;-70
2022/03/08 05:26:28;;;;;;;8.20;4.87;;;-0.10;99.90;;;;;;5054435;28;20082;-70
2022/03/08 05:28:54;;;;;;;14.73;4.93;;;-0.10;99.90;;;;;;5055700;28;20025;-71
2022/03/08 05:31:20;;;;;;;11.27;5.57;;;-0.20;99.90;;;;;;5054794;28;20029;-70
2022/03/08 05:33:46;;;;;;;11.38;4.90;;;-0.20;99.90;;;;;;5055131;28;20033;-70
2022/03/08 05:36:11;;;;;;;8.37;3.80;;;-0.20;99.90;;;;;;5055004;28;20035;-70
2022/03/08 05:38:37;;;;;;;10.20;4.40;;;-0.20;99.90;;;;;;5037387;28;20313;-71
2022/03/08 05:41:03;;;;;;;9.77;5.57;;;-0.20;99.90;;;;;;5035038;28;20082;-70
2022/03/08 05:43:29;;;;;;;12.40;4.80;;;-0.20;99.90;;;;;;5054569;28;20029;-70
2022/03/08 05:45:54;;;;;;;10.33;5.47;;;-0.20;99.90;;;;;;5054270;28;20020;-70
2022/03/08 05:48:20;;;;;;;11.37;5.30;;;-0.30;99.90;;;;;;5054255;28;20640;-70
2022/03/08 05:50:46;;;;;;;11.07;5.33;;;-0.30;99.90;;;;;;5049875;28;20033;-81
2022/03/08 05:53:11;;;;;;;11.83;5.20;;;-0.40;99.90;;;;;;5036159;28;20119;-70
2022/03/08 05:55:37;;;;;;;10.60;4.87;;;-0.40;99.90;;;;;;5052322;28;20086;-70
2022/03/08 05:58:03;;;;;;;10.60;4.33;;;-0.40;99.90;;;;;;5034533;28;20025;-70
2022/03/08 06:00:29;;;;;;;6.93;3.93;;;-0.40;99.90;;;;;;5033800;28;20057;-70
2022/03/08 06:02:54;;;;;;;14.73;5.50;;;-0.40;99.90;;;;;;5046874;28;20021;-70
2022/03/08 06:05:22;;;;;;;8.27;3.53;;;-0.40;99.90;;;;;;5049404;28;20029;-70
2022/03/08 06:07:48;;;;;;;10.48;5.72;;;-0.50;99.90;;;;;;5032625;28;20032;-70
2022/03/08 06:10:14;;;;;;;7.27;4.10;;;-0.50;99.90;;;;;;5053533;28;20091;-70
2022/03/08 06:12:41;;;;;;;11.25;5.03;;;-0.60;99.90;;;;;;5053703;28;20032;-70
2022/03/08 06:15:07;;;;;;;8.13;4.78;;;-0.50;99.90;;;;;;5047167;28;20423;-78
2022/03/08 06:17:33;;;;;;;15.27;5.35;;;-0.50;99.90;;;;;;5050098;28;20040;-70
2022/03/08 06:19:59;;;;;;;10.65;5.53;;;-0.50;99.90;;;;;;5035788;28;20117;-72
2022/03/08 06:22:25;;;;;;;9.50;4.93;;;-0.60;99.90;;;;;;5053797;28;20096;-71
2022/03/08 06:24:50;;;;;;;10.23;5.10;;;-0.60;99.90;;;;;;5050763;28;20411;-70
2022/03/08 06:27:16;;;;;;;8.93;4.23;;;-0.60;99.90;;;;;;5048318;28;20029;-70
2022/03/08 06:29:42;;;;;;;14.20;5.17;;;-0.60;99.90;;;;;;5048454;28;20351;-71
2022/03/08 06:32:08;;;;;;;14.07;4.10;;;-0.50;99.90;;;;;;5053207;28;20427;-80
2022/03/08 06:34:34;;;;;;;9.40;5.70;;;-0.50;99.90;;;;;;5053953;28;20029;-71
2022/03/08 06:36:59;;;;;;;8.93;2.97;;;-0.40;99.90;;;;;;5035670;28;20372;-71
2022/03/08 06:39:25;;;;;;;12.43;5.00;;;-0.40;99.90;;;;;;5053362;28;20045;-70
2022/03/08 06:41:51;;;;;;;7.17;3.67;;;-0.30;99.90;;;;;;5053375;28;20408;-71
2022/03/08 06:44:17;;;;;;;8.57;4.93;;;-0.20;99.90;;;;;;5053352;28;20116;-79
2022/03/08 06:46:44;;;;;;;10.40;4.53;;;-0.10;99.90;;;;;;5053478;28;20021;-74
2022/03/08 06:49:10;;;;;;;8.20;4.57;;;0.00;99.90;;;;;;5047001;28;20056;-72
2022/03/08 06:51:37;;;;;;;6.47;3.38;;;0.20;99.90;;;;;;5045464;28;20060;-71
2022/03/08 06:54:06;;;;;;;10.32;5.32;;;0.20;99.90;;;;;;5050450;28;20025;-71
2022/03/08 06:56:33;;;;;;;8.27;4.03;;;0.30;99.90;;;;;;5042903;28;20423;-70
2022/03/08 06:59:02;;;;;;;8.27;4.40;;;0.40;99.90;;;;;;5035630;28;20029;-74
2022/03/08 07:01:29;;;;;;;9.57;4.65;;;0.50;99.90;;;;;;5044998;28;20025;-71
2022/03/08 07:03:55;;;;;;;;;;;0.60;99.90;;;;;;5051832;28;20053;-71
2022/03/08 07:06:21;;;;;;;9.70;3.50;;;0.70;99.90;;;;;;5048498;28;20432;-71
2022/03/08 07:08:47;;;;;;;9.40;4.27;;;0.90;99.90;;;;;;5058119;28;20067;-71
2022/03/08 07:11:13;;;;;;;7.43;3.47;;;1.20;99.90;;;;;;5058087;28;20048;-71
2022/03/08 07:13:39;;;;;;;6.00;3.63;;;1.70;99.90;;;;;;5057981;28;20028;-71
2022/03/08 07:16:05;;;;;;;11.03;4.37;;;2.20;99.90;;;;;;5066284;28;20039;-72
2022/03/08 07:18:31;;;;;;;7.50;4.68;;;2.90;99.90;;;;;;5057870;28;20621;-81
2022/03/08 07:20:57;;;;;;;11.90;4.73;;;3.60;99.90;;;;;;5057935;28;20029;-72
2022/03/08 07:23:23;;;;;;;8.77;4.33;;;4.20;99.90;;;;;;5057980;28;20370;-71
2022/03/08 07:25:49;;;;;;;12.93;4.47;;;4.50;99.90;;;;;;5045781;28;20512;-71
2022/03/08 07:28:15;;;;;;;9.37;4.53;;;4.50;99.90;;;;;;5055096;28;20112;-71
2022/03/08 07:30:41;;;;;;;8.73;4.47;;;4.60;99.90;;;;;;5049835;28;20036;-73
2022/03/08 07:33:06;;;;;;;10.43;4.83;;;5.00;99.90;;;;;;5053665;28;20281;-71
2022/03/08 07:35:32;;;;;;;5.90;4.97;;;5.20;99.90;;;;;;5054788;28;20033;-72
2022/03/08 07:37:58;;;;;;;5.60;3.00;;;5.40;99.90;;;;;;5052009;28;20055;-81
2022/03/08 07:40:23;;;;;;;7.13;3.00;;;5.50;99.90;;;;;;5054184;28;20031;-72
2022/03/08 07:42:49;;;;;;;8.13;3.73;;;5.60;99.90;;;;;;5053368;28;20037;-72
2022/03/08 07:45:15;;;;;;;5.87;4.33;;;5.80;99.90;;;;;;5055785;28;20826;-71
2022/03/08 07:47:41;;;;;;;7.20;3.80;;;6.00;99.90;;;;;;5042822;28;20067;-71
2022/03/08 07:50:07;;;;;;;6.23;2.97;;;6.20;99.90;;;;;;5060502;28;20037;-71
2022/03/08 07:52:33;;;;;;;7.90;4.40;;;5.70;99.90;;;;;;5044236;28;20037;-72
2022/03/08 07:54:59;;;;;;;5.50;3.50;;;5.40;99.90;;;;;;5054903;28;20039;-76
2022/03/08 07:57:24;;;;;;;6.03;4.07;;;5.70;99.90;;;;;;5053482;28;20415;-71
2022/03/08 07:59:51;;;;;;;3.87;2.40;;;5.90;99.90;;;;;;5054121;28;20029;-72
2022/03/08 08:02:16;;;;;;;5.93;3.38;;;5.70;99.90;;;;;;5054882;28;20029;-72
2022/03/08 08:04:42;;;;;;;11.03;3.80;;;5.80;99.90;;;;;;5053689;28;20035;-72
2022/03/08 08:07:08;;;;;;;7.17;3.83;;;6.10;99.90;;;;;;5053601;28;20033;-71
2022/03/08 08:09:34;;;;;;;8.10;3.63;;;6.30;99.90;;;;;;5053323;28;20021;-71
2022/03/08 08:12:00;;;;;;;7.75;4.63;;;6.20;99.90;;;;;;5053001;28;20028;-72
2022/03/08 08:14:26;;;;;;;10.98;4.22;;;6.40;99.90;;;;;;5048198;28;20088;-72
2022/03/08 08:16:52;;;;;;;7.15;4.05;;;6.80;98.90;;;;;;5048138;28;20024;-80
2022/03/08 08:19:18;;;;;;;7.33;4.17;;;6.50;99.60;;;;;;5052483;28;20036;-72
2022/03/08 08:21:44;;;;;;;5.20;2.80;;;6.50;99.60;;;;;;5054335;28;20049;-72
2022/03/08 08:24:10;;;;;;;7.03;3.13;;;6.50;99.30;;;;;;5041839;28;20032;-73
2022/03/08 08:26:36;;;;;;;6.53;4.47;;;6.80;99.00;;;;;;5044294;28;20044;-80
2022/03/08 08:29:02;;;;;;;7.73;3.77;;;6.50;99.00;;;;;;5042998;28;20075;-80
2022/03/08 08:31:30;;;;;;;7.80;4.00;;;6.60;98.80;;;;;;5055542;28;20029;-72
2022/03/08 08:33:55;;;;;;;10.98;4.80;;;7.10;98.90;;;;;;5045462;28;20032;-75
2022/03/08 08:36:21;;;;;;;7.37;4.77;;;7.20;98.60;;;;;;5053851;28;20028;-72
2022/03/08 08:38:47;;;;;;;6.60;3.58;;;7.10;98.80;;;;;;5051188;28;20103;-72
2022/03/08 08:41:13;;;;;;;7.95;4.65;;;7.00;98.10;;;;;;5052692;28;20099;-73
2022/03/08 08:43:41;;;;;;;6.10;3.72;;;7.20;98.70;;;;;;5050943;28;20065;-72
2022/03/08 08:46:07;;;;;;;7.30;3.95;;;7.20;98.00;;;;;;5052232;28;20072;-79
2022/03/08 08:48:33;;;;;;;6.60;3.70;;;7.30;98.30;;;;;;5043865;28;20044;-80
2022/03/08 08:50:59;;;;;;;8.20;4.70;;;7.40;97.70;;;;;;5052995;28;20063;-77
2022/03/08 08:53:24;;;;;;;5.67;3.83;;;7.50;98.50;;;;;;5052647;28;20029;-72
2022/03/08 08:55:50;;;;;;;10.63;3.97;;;7.40;97.40;;;;;;5051835;28;20107;-72
2022/03/08 08:58:16;;;;;;;5.57;2.87;;;7.50;97.60;;;;;;5052360;28;20040;-79
2022/03/08 09:00:42;;;;;;;8.30;4.33;;;7.70;96.30;;;;;;5051970;28;20029;-72
2022/03/08 09:03:14;;;;;;;8.47;3.93;;;7.90;97.00;;;;;;5053053;28;20025;-80
2022/03/08 09:05:45;;;;;;;4.85;3.08;;;8.20;97.00;;;;;;5054511;28;20024;-72
2022/03/08 09:08:14;;;;;;;8.45;3.60;;;7.50;95.80;;;;;;5034678;28;20033;-72
2022/03/08 09:10:40;;;;;;;4.72;3.00;;;7.70;97.60;;;;;;5037289;28;20128;-72
2022/03/08 09:13:06;;;;;;;13.38;3.72;;;8.00;96.30;;;;;;5037575;28;20116;-80
2022/03/08 09:15:32;;;;;;;4.45;2.97;;;7.90;94.60;;;;;;5037605;28;20411;-79
2022/03/08 09:17:58;;;;;;;7.00;3.47;;;7.70;95.50;;;;;;5037642;28;20116;-72
2022/03/08 09:20:26;;;;;;;4.30;2.53;;;7.80;95.70;;;;;;5055633;28;20100;-73
2022/03/08 09:22:53;;;;;;;4.88;2.70;;;7.90;94.80;;;;;;5037328;28;20021;-72
2022/03/08 09:25:19;;;;;;;4.47;3.15;;;7.90;95.10;;;;;;5047501;28;20056;-79
2022/03/08 09:27:45;;;;;;;6.07;3.10;;;7.80;94.20;;;;;;5055694;28;20040;-72
2022/03/08 09:30:12;;;;;;;5.05;3.40;;;7.80;94.10;;;;;;5055456;28;20318;-72
2022/03/08 09:32:38;;;;;;;5.80;2.63;;;7.90;94.60;;;;;;5018033;28;20048;-72
2022/03/08 09:35:04;;;;;;;2.58;1.90;;;8.00;93.70;;;;;;5053390;28;20025;-72
2022/03/08 09:37:30;;;;;;;3.85;2.58;;;7.90;93.20;;;;;;5041784;28;20025;-72
2022/03/08 09:39:56;;;;;;;7.38;2.97;;;7.80;93.90;;;;;;5054780;28;20029;-82
2022/03/08 09:42:22;;;;;;;6.30;2.88;;;8.10;94.60;;;;;;5054809;28;20029;-72
2022/03/08 09:44:48;;;;;;;12.70;3.25;;;8.30;94.20;;;;;;5054600;28;20032;-72
2022/03/08 09:47:18;;;;;;;8.05;3.10;;;8.50;94.20;;;;;;5054855;28;20674;-81
2022/03/08 09:49:44;;;;;;;4.35;3.10;;;8.30;92.90;;;;;;5054831;28;20056;-83
2022/03/08 09:52:11;;;;;;;6.53;3.37;;;8.30;93.70;;;;;;5039400;28;20435;-72
2022/03/08 09:54:37;;;;;;;14.43;2.90;;;8.20;92.60;;;;;;5046270;28;20030;-72
2022/03/08 09:57:11;;;;;;;4.38;2.85;;;8.00;93.20;;;;;;5032414;28;20021;-83
2022/03/08 09:59:37;;;;;;;6.20;3.20;;;7.90;93.30;;;;;;5041389;28;20035;-74
2022/03/08 10:02:04;;;;;;;7.05;3.50;;;8.00;93.60;;;;;;5042912;28;20090;-80
2022/03/08 10:04:30;;;;;;;6.65;3.67;;;8.30;95.10;;;;;;5027934;28;20119;-72
2022/03/08 10:06:57;;;;;;;6.35;2.53;;;8.60;94.40;;;;;;5046158;28;20111;-83
2022/03/08 10:09:23;;;;;;;5.90;2.88;;;8.70;92.30;;;;;;5044233;28;20025;-72
2022/03/08 10:11:54;;;;;;;5.03;3.13;;;8.70;93.50;;;;;;5042880;28;20029;-72
2022/03/08 10:14:39;;;;;;;6.95;2.80;;;8.50;92.90;;;;;;5033640;28;20043;-79
2022/03/08 10:17:06;;;;;;;8.27;3.17;;;8.60;93.00;;;;;;5039966;28;20036;-80
2022/03/08 10:19:52;;;;;;;6.40;3.13;;;8.50;92.50;;;;;;5045931;28;20112;-72
2022/03/08 10:22:47;;;;;;;5.13;3.42;;;8.60;93.90;;;;;;5024260;28;20032;-80
2022/03/08 10:25:25;;;;;;;4.57;2.60;;;8.80;92.80;;;;;;4990441;28;20041;-82
2022/03/08 10:27:56;;;;;;;4.78;3.38;;;8.60;93.40;;;;;;4991509;28;20080;-76
2022/03/08 10:30:24;;;;;;;5.95;2.88;;;8.60;92.70;;;;;;4989720;28;20042;-74
2022/03/08 10:32:53;;;;;;;6.53;3.50;;;8.60;92.30;;;;;;4990644;28;20085;-73
2022/03/08 10:35:29;;;;;;;7.35;3.08;;;8.60;93.10;;;;;;4989800;28;20488;-73
2022/03/08 10:38:04;;;;;;;9.67;3.47;;;8.50;92.50;;;;;;4990649;28;20046;-82
2022/03/08 10:40:32;;;;;;;5.05;3.08;;;8.40;92.30;;;;;;4993118;28;20365;-74
2022/03/08 10:43:28;;;;;;;4.82;2.55;;;8.50;93.10;;;;;;4994937;28;20038;-82
2022/03/08 10:45:54;;;;;;;4.40;2.53;;;8.50;93.80;;;;;;4949437;29;20039;-73
2022/03/08 10:48:26;;;;;;;8.07;3.43;;;8.60;92.70;;;;;;4947185;29;20067;-74
2022/03/08 10:50:51;;;;;;;6.93;3.88;;;8.70;93.00;;;;;;4946010;29;20047;-73
2022/03/08 10:53:18;;;;;;;5.87;3.63;;;8.80;93.30;;;;;;4947364;29;20028;-73
2022/03/08 10:55:52;;;;;;;4.43;3.05;;;8.90;93.10;;;;;;4946188;29;20118;-73
2022/03/08 10:58:19;;;;;;;5.00;2.92;;;8.90;92.60;;;;;;4946616;29;20100;-73
2022/03/08 11:00:50;;;;;;;5.28;3.25;;;8.90;92.40;;;;;;4940400;28;20062;-73
2022/03/08 11:03:20;;;;;;;5.85;3.05;;;8.90;91.70;;;;;;4988328;28;21199;-82
2022/03/08 11:05:48;;;;;;;5.13;3.42;;;8.80;92.40;;;;;;4967175;28;21118;-84
2022/03/08 11:08:15;;;;;;;4.00;3.03;;;8.80;92.70;;;;;;4983253;28;20062;-73
2022/03/08 11:10:42;;;;;;;4.63;3.17;;;8.70;92.10;;;;;;4985528;28;20074;-73
2022/03/08 11:13:09;;;;;;;7.93;3.00;;;8.70;91.50;;;;;;4982835;28;20443;-80
2022/03/08 11:15:38;;;;;;;13.35;3.33;;;8.90;92.20;;;;;;4977810;28;20047;-84
2022/03/08 11:18:09;;;;;;;3.97;2.67;;;8.90;92.40;;;;;;4985120;28;20680;-73
2022/03/08 11:20:36;;;;;;;3.65;2.20;;;9.10;91.30;;;;;;4983689;28;20035;-82
2022/03/08 11:23:03;;;;;;;10.52;3.60;;;9.10;90.60;;;;;;5032686;28;20332;-76
2022/03/08 11:25:32;;;;;;;7.10;3.72;;;9.20;91.40;;;;;;5048909;28;20032;-73
2022/03/08 11:28:00;;;;;;;6.80;3.78;;;9.20;91.30;;;;;;5039551;28;20034;-74
2022/03/08 11:30:30;;;;;;;6.72;3.38;;;9.40;91.30;;;;;;5034243;28;20075;-73
2022/03/08 11:33:03;;;;;;;5.78;3.67;;;9.40;90.20;;;;;;5050254;28;20025;-73
2022/03/08 11:35:53;;;;;;;9.10;3.20;;;9.50;91.00;;;;;;5050340;28;20083;-73
2022/03/08 11:38:19;;;;;;;4.35;3.17;;;9.50;90.10;;;;;;5050064;28;20042;-73
2022/03/08 11:40:49;;;;;;;3.88;3.08;;;9.70;90.60;;;;;;5054254;28;20033;-80
2022/03/08 11:43:15;;;;;;;8.35;2.78;;;10.00;90.40;;;;;;5054885;28;20040;-81
2022/03/08 11:45:41;;;;;;;11.13;3.27;;;10.00;90.00;;;;;;5052430;28;20035;-72
2022/03/08 11:48:09;;;;;;;4.53;2.70;;;10.10;90.10;;;;;;5050079;28;20321;-81
2022/03/08 11:50:45;;;;;;;3.88;2.50;;;10.20;86.10;;;;;;5047606;28;20494;-81
2022/03/08 11:53:13;;;;;;;3.53;2.58;;;9.90;84.90;;;;;;5044410;28;20040;-74
2022/03/08 11:55:45;;;;;;;4.50;2.35;;;9.90;87.90;;;;;;5049985;28;20448;-73
2022/03/08 11:58:19;;;;;;;4.88;2.72;;;9.90;87.90;;;;;;5026312;28;20560;-73
2022/03/08 12:00:59;;;;;;;6.45;2.92;;;10.00;87.30;;;;;;5053695;28;20032;-81
2022/03/08 12:03:25;;;;;;;6.25;2.72;;;10.20;88.00;;;;;;5036087;28;20116;-73
2022/03/08 12:05:50;;;;;;;4.13;2.87;;;10.30;85.20;;;;;;5052322;28;20199;-82
2022/03/08 12:08:41;;;;;;;4.57;2.60;;;10.30;85.30;;;;;;5034698;28;20359;-83
2022/03/08 12:11:26;;;;;;;6.65;2.72;;;10.00;83.10;;;;;;5046346;28;20068;-82
2022/03/08 12:14:12;;;;;;;13.70;3.20;;;9.90;84.60;;;;;;5046532;28;20029;-73
2022/03/08 12:16:39;;;;;;;3.28;2.53;;;9.80;83.80;;;;;;5029711;28;20040;-83
2022/03/08 12:19:06;;;;;;;3.83;2.78;;;9.90;84.40;;;;;;5050416;28;20036;-83
2022/03/08 12:21:34;;;;;;;;;;;10.00;83.70;;;;;;5036590;28;20037;-82
2022/03/08 12:24:10;;;;;;;3.83;2.10;;;10.00;82.70;;;;;;5053073;28;19919;-74
2022/03/08 12:26:45;;;;;;;2.97;2.22;;;10.00;83.50;;;;;;5049043;28;20039;-83
2022/03/08 12:29:17;;;;;;;8.15;2.50;;;10.00;82.50;;;;;;5033240;28;20029;-79
2022/03/08 12:31:58;;;;;;;3.90;2.60;;;10.00;84.00;;;;;;5031909;28;20033;-83
2022/03/08 12:34:37;;;;;;;4.07;3.13;;;10.10;82.10;;;;;;5025167;28;20431;-82
2022/03/08 12:37:04;;;;;;;2.60;2.15;;;10.20;82.70;;;;;;5050433;28;20028;-72
2022/03/08 12:39:51;;;;;;;3.33;2.30;;;10.30;82.70;;;;;;5036978;28;20045;-73
2022/03/08 12:42:41;;;;;;;3.67;1.98;;;10.20;80.10;;;;;;5049921;28;20040;-72
2022/03/08 12:45:14;;;;;;;4.28;2.45;;;10.10;79.80;;;;;;5020499;28;20069;-81
2022/03/08 12:47:45;;;;;;;3.80;2.45;;;10.00;81.50;;;;;;5037924;28;20029;-73
2022/03/08 12:50:14;;;;;;;4.18;2.40;;;10.10;82.60;;;;;;5051423;28;20064;-73
2022/03/08 12:52:55;;;;;;;3.25;2.45;;;10.20;82.50;;;;;;5041862;28;20053;-73